Time;durP1;ratioP1;P1;durP2;ratioP2;P2;SDS_P1;SDS_P2;PMS_P1;PMS_P2;Temp;Humidity;BMP_temperature;BMP_pressure;BME280_temperature;BME280_humidity;BME280_pressure;Samples;Min_cycle;Max_cycle;Signal;HPM_P1;HPM_P2
2022/08/22 00:01:45;;;;;;;0.40;0.40;;;16.20;99.90;;;;;;5053714;28;20205;-66
2022/08/22 00:04:41;;;;;;;0.50;0.50;;;16.10;99.90;;;;;;5053543;28;20201;-66
2022/08/22 00:07:44;;;;;;;0.50;0.50;;;16.10;99.90;;;;;;5053224;28;20217;-65
2022/08/22 00:10:47;;;;;;;0.50;0.50;;;16.10;99.90;;;;;;5053753;28;20193;-66
2022/08/22 00:13:47;;;;;;;0.40;0.40;;;16.10;99.90;;;;;;5054181;28;20723;-65
2022/08/22 00:16:52;;;;;;;0.40;0.40;;;16.00;99.90;;;;;;5054144;28;20267;-66
2022/08/22 00:19:48;;;;;;;0.40;0.40;;;16.00;99.90;;;;;;5053824;28;20190;-66
2022/08/22 00:22:46;;;;;;;0.40;0.40;;;16.00;99.90;;;;;;5053860;28;20275;-65
2022/08/22 00:25:50;;;;;;;0.40;0.40;;;16.00;99.90;;;;;;5053781;28;20251;-65
2022/08/22 00:28:44;;;;;;;0.40;0.40;;;15.90;99.90;;;;;;5054052;28;20713;-65
2022/08/22 00:31:39;;;;;;;0.40;0.40;;;15.90;99.90;;;;;;5053453;28;20217;-65
2022/08/22 00:34:36;;;;;;;0.40;0.40;;;15.90;99.90;;;;;;5053767;28;20204;-65
2022/08/22 00:37:29;;;;;;;0.50;0.50;;;15.80;99.90;;;;;;5053454;28;20229;-65
2022/08/22 00:40:38;;;;;;;0.40;0.40;;;15.80;99.90;;;;;;5053495;28;20693;-65
2022/08/22 00:44:16;;;;;;;0.40;0.40;;;15.80;99.90;;;;;;5053659;28;20205;-65
2022/08/22 00:47:44;;;;;;;0.40;0.40;;;15.70;99.90;;;;;;5053718;28;20217;-65
2022/08/22 00:51:01;;;;;;;0.40;0.40;;;15.70;99.90;;;;;;5041003;28;20636;-66
2022/08/22 00:53:54;;;;;;;0.40;0.40;;;15.60;99.90;;;;;;5054410;28;20201;-64
2022/08/22 00:56:58;;;;;;;0.40;0.40;;;15.60;99.90;;;;;;5060909;28;20630;-64
2022/08/22 01:00:10;;;;;;;0.40;0.40;;;15.60;99.90;;;;;;5094269;28;20196;-64
2022/08/22 01:03:27;;;;;;;0.50;0.50;;;15.60;99.90;;;;;;5094062;28;20207;-64
2022/08/22 01:06:24;;;;;;;0.40;0.40;;;15.60;99.90;;;;;;5093507;28;20464;-64
2022/08/22 01:09:27;;;;;;;0.50;0.50;;;15.60;99.90;;;;;;5092435;28;20737;-65
2022/08/22 01:12:33;;;;;;;0.40;0.40;;;15.50;99.90;;;;;;5094101;28;20200;-64
2022/08/22 01:15:25;;;;;;;0.40;0.40;;;15.50;99.90;;;;;;5094252;28;20214;-65
2022/08/22 01:19:01;;;;;;;0.40;0.40;;;15.50;99.90;;;;;;5093621;28;20578;-65
2022/08/22 01:22:25;;;;;;;0.40;0.40;;;15.50;99.90;;;;;;4992917;28;20207;-65
2022/08/22 01:26:13;;;;;;;0.40;0.40;;;15.40;99.90;;;;;;5093468;28;20209;-65
2022/08/22 01:29:45;;;;;;;0.50;0.50;;;15.40;99.90;;;;;;5031090;28;20726;-65
2022/08/22 01:33:13;;;;;;;0.40;0.40;;;15.30;99.90;;;;;;5092530;28;20422;-64
2022/08/22 01:36:20;;;;;;;0.40;0.40;;;15.30;99.90;;;;;;5092837;28;20422;-64
2022/08/22 01:39:49;;;;;;;0.50;0.50;;;15.30;99.90;;;;;;5087660;28;20207;-65
2022/08/22 01:42:54;;;;;;;0.40;0.40;;;15.30;99.90;;;;;;5067129;28;20461;-64
2022/08/22 01:45:57;;;;;;;0.50;0.50;;;15.30;99.90;;;;;;5067592;28;20669;-65
2022/08/22 01:48:51;;;;;;;0.40;0.40;;;15.30;99.90;;;;;;5073160;28;20458;-65
2022/08/22 01:51:46;;;;;;;0.40;0.40;;;15.30;99.90;;;;;;5073160;28;20345;-65
2022/08/22 01:54:48;;;;;;;0.50;0.50;;;15.30;99.90;;;;;;5072754;28;20763;-64
2022/08/22 01:57:49;;;;;;;0.40;0.40;;;15.30;99.90;;;;;;5073173;28;20269;-64
2022/08/22 02:01:05;;;;;;;0.40;0.40;;;15.20;99.90;;;;;;5073188;28;20196;-65
2022/08/22 02:04:01;;;;;;;0.50;0.50;;;15.20;99.90;;;;;;5071544;28;20246;-65
2022/08/22 02:07:02;;;;;;;0.40;0.40;;;15.20;99.90;;;;;;5071143;28;20278;-65
2022/08/22 02:10:04;;;;;;;0.40;0.40;;;15.20;99.90;;;;;;5070402;28;20309;-65
2022/08/22 02:13:02;;;;;;;0.50;0.50;;;15.20;99.90;;;;;;5071899;28;20242;-65
2022/08/22 02:16:03;;;;;;;0.47;0.47;;;15.10;99.90;;;;;;5073109;28;20200;-66
2022/08/22 02:19:03;;;;;;;0.50;0.50;;;15.10;99.90;;;;;;5073153;28;20415;-65
2022/08/22 02:21:56;;;;;;;0.50;0.50;;;15.00;99.90;;;;;;5073419;28;20441;-68
2022/08/22 02:24:53;;;;;;;0.43;0.43;;;15.00;99.90;;;;;;5072883;28;20619;-66
2022/08/22 02:27:52;;;;;;;0.40;0.40;;;15.00;99.90;;;;;;5071175;28;20522;-66
2022/08/22 02:30:49;;;;;;;0.40;0.40;;;15.00;99.90;;;;;;5073283;28;20223;-66
2022/08/22 02:33:48;;;;;;;0.50;0.50;;;15.00;99.90;;;;;;5071745;28;20426;-66
2022/08/22 02:36:45;;;;;;;0.50;0.50;;;15.00;99.90;;;;;;5071288;28;20216;-66
2022/08/22 02:39:40;;;;;;;0.40;0.40;;;15.00;99.90;;;;;;5071556;28;20228;-67
2022/08/22 02:42:35;;;;;;;0.40;0.40;;;15.00;99.90;;;;;;5071994;28;20334;-68
2022/08/22 02:45:37;;;;;;;0.50;0.50;;;15.00;99.90;;;;;;5071711;28;21023;-67
2022/08/22 02:48:34;;;;;;;0.40;0.40;;;15.00;99.90;;;;;;5071389;28;20430;-68
2022/08/22 02:51:34;;;;;;;0.40;0.40;;;14.90;99.90;;;;;;5071998;28;20423;-65
2022/08/22 02:54:27;;;;;;;0.40;0.40;;;14.90;99.90;;;;;;5070922;28;20197;-65
2022/08/22 02:57:24;;;;;;;0.50;0.50;;;14.90;99.90;;;;;;5080914;28;20496;-65
2022/08/22 03:00:23;;;;;;;0.50;0.50;;;14.90;99.90;;;;;;5091012;28;20474;-66
2022/08/22 03:03:23;;;;;;;0.40;0.40;;;14.90;99.90;;;;;;5091391;28;20475;-68
2022/08/22 03:06:31;;;;;;;0.40;0.40;;;14.90;99.90;;;;;;5091733;28;20462;-66
2022/08/22 03:09:26;;;;;;;0.60;0.60;;;14.80;99.90;;;;;;5090997;28;21005;-67
2022/08/22 03:12:25;;;;;;;0.40;0.40;;;14.80;99.90;;;;;;5092411;28;20931;-65
2022/08/22 03:15:20;;;;;;;0.40;0.40;;;14.80;99.90;;;;;;5091877;28;20958;-66
2022/08/22 03:18:22;;;;;;;0.40;0.40;;;14.80;99.90;;;;;;5091870;28;20297;-66
2022/08/22 03:21:16;;;;;;;0.40;0.40;;;14.70;99.90;;;;;;5091558;28;20191;-68
2022/08/22 03:24:10;;;;;;;0.40;0.40;;;14.80;99.90;;;;;;5091587;28;20261;-67
2022/08/22 03:27:05;;;;;;;0.50;0.50;;;14.70;99.90;;;;;;5092182;28;20227;-68
2022/08/22 03:30:02;;;;;;;0.40;0.40;;;14.70;99.90;;;;;;5091365;28;20219;-65
2022/08/22 03:32:54;;;;;;;0.40;0.40;;;14.70;99.90;;;;;;5091538;28;20245;-65
2022/08/22 03:35:57;;;;;;;0.40;0.40;;;14.70;99.90;;;;;;5091677;28;20432;-66
2022/08/22 03:39:02;;;;;;;0.40;0.40;;;14.70;99.90;;;;;;5091557;28;20490;-66
2022/08/22 03:42:21;;;;;;;0.40;0.40;;;14.70;99.90;;;;;;5091112;28;20444;-66
2022/08/22 03:45:26;;;;;;;0.50;0.50;;;14.60;99.90;;;;;;5094306;28;20770;-68
2022/08/22 03:48:41;;;;;;;0.40;0.40;;;14.60;99.90;;;;;;5094405;28;20199;-65
2022/08/22 03:51:45;;;;;;;0.40;0.40;;;14.60;99.90;;;;;;5094765;28;20206;-68
2022/08/22 03:55:08;;;;;;;0.43;0.43;;;14.60;99.90;;;;;;5095582;28;20206;-68
2022/08/22 03:58:30;;;;;;;0.40;0.40;;;14.60;99.90;;;;;;5079797;28;20278;-66
2022/08/22 04:01:47;;;;;;;0.50;0.50;;;14.60;99.90;;;;;;5074920;28;20220;-66
2022/08/22 04:05:08;;;;;;;0.40;0.40;;;14.50;99.90;;;;;;5075778;28;20201;-67
2022/08/22 04:08:35;;;;;;;0.40;0.40;;;14.50;99.90;;;;;;5074711;28;20224;-66
2022/08/22 04:11:52;;;;;;;0.50;0.50;;;14.50;99.90;;;;;;5013034;28;20431;-65
2022/08/22 04:15:15;;;;;;;0.40;0.40;;;14.50;99.90;;;;;;5075715;28;20426;-65
2022/08/22 04:18:34;;;;;;;0.40;0.40;;;14.40;99.90;;;;;;5073959;28;21009;-67
2022/08/22 04:22:05;;;;;;;0.40;0.40;;;14.40;99.90;;;;;;5073580;28;21013;-68
2022/08/22 04:24:59;;;;;;;0.40;0.40;;;14.50;99.90;;;;;;5075420;28;20208;-66
2022/08/22 04:28:00;;;;;;;0.50;0.50;;;14.50;99.90;;;;;;5074348;28;20224;-68
2022/08/22 04:30:53;;;;;;;0.40;0.40;;;14.50;99.90;;;;;;5075167;28;20287;-68
2022/08/22 04:33:49;;;;;;;0.40;0.40;;;14.60;99.90;;;;;;5073714;28;20207;-66
2022/08/22 04:36:44;;;;;;;0.40;0.40;;;14.60;99.90;;;;;;5074024;28;20453;-65
2022/08/22 04:39:37;;;;;;;0.40;0.40;;;14.70;99.90;;;;;;5073867;28;20686;-71
2022/08/22 04:42:33;;;;;;;0.40;0.40;;;14.70;99.90;;;;;;5073239;28;20192;-65
2022/08/22 04:45:26;;;;;;;0.40;0.40;;;14.80;99.90;;;;;;5074661;28;20484;-66
2022/08/22 04:48:21;;;;;;;0.40;0.40;;;14.80;99.90;;;;;;5074255;28;20423;-68
2022/08/22 04:51:16;;;;;;;0.40;0.40;;;14.80;99.90;;;;;;5072271;28;20463;-65
2022/08/22 04:54:24;;;;;;;0.40;0.40;;;14.90;99.90;;;;;;5073628;28;20438;-68
2022/08/22 04:57:22;;;;;;;0.40;0.40;;;14.90;99.90;;;;;;5080401;28;20872;-66
2022/08/22 05:00:11;;;;;;;0.40;0.40;;;15.00;99.90;;;;;;5093568;28;20196;-67
2022/08/22 05:03:02;;;;;;;0.50;0.50;;;15.00;99.90;;;;;;5094274;28;20433;-67
2022/08/22 05:05:53;;;;;;;0.40;0.40;;;15.10;99.90;;;;;;5093053;28;20619;-66
2022/08/22 05:08:45;;;;;;;0.40;0.40;;;15.30;99.90;;;;;;5093473;28;20272;-67
2022/08/22 05:11:42;;;;;;;0.50;0.50;;;15.40;99.90;;;;;;5092525;28;20227;-66
2022/08/22 05:14:37;;;;;;;0.40;0.40;;;15.50;99.90;;;;;;5092717;28;20845;-67
2022/08/22 05:17:28;;;;;;;0.40;0.40;;;15.70;99.90;;;;;;5092030;28;20285;-65
2022/08/22 05:20:20;;;;;;;0.40;0.40;;;15.90;99.90;;;;;;5091809;28;20196;-67
2022/08/22 05:23:16;;;;;;;0.50;0.50;;;16.00;99.90;;;;;;5092698;28;20632;-66
2022/08/22 05:26:07;;;;;;;0.50;0.50;;;16.20;99.90;;;;;;5091565;28;20622;-68
2022/08/22 05:29:00;;;;;;;0.50;0.50;;;16.20;99.90;;;;;;5090926;28;20206;-68
2022/08/22 05:31:53;;;;;;;0.50;0.50;;;16.20;99.90;;;;;;5091429;28;20625;-68
2022/08/22 05:34:46;;;;;;;0.40;0.40;;;16.20;99.90;;;;;;5091932;28;20241;-65
2022/08/22 05:37:43;;;;;;;0.50;0.50;;;16.20;99.90;;;;;;5091674;28;20218;-71
2022/08/22 05:40:34;;;;;;;0.40;0.40;;;16.20;99.90;;;;;;5091803;28;20202;-69
2022/08/22 05:43:27;;;;;;;0.40;0.40;;;16.30;99.90;;;;;;5070617;28;20247;-69
2022/08/22 05:46:20;;;;;;;0.50;0.50;;;16.40;99.90;;;;;;5072845;28;20311;-69
2022/08/22 05:49:17;;;;;;;0.40;0.40;;;16.40;99.90;;;;;;5070277;28;20204;-64
2022/08/22 05:52:15;;;;;;;0.50;0.50;;;16.40;99.90;;;;;;5060573;28;20225;-67
2022/08/22 05:55:10;;;;;;;0.40;0.40;;;16.50;99.90;;;;;;5057309;28;20197;-69
2022/08/22 05:58:23;;;;;;;0.50;0.50;;;16.50;99.90;;;;;;5071989;28;20763;-67
2022/08/22 06:01:22;;;;;;;0.40;0.40;;;16.70;99.90;;;;;;5069429;28;20239;-70
2022/08/22 06:04:20;;;;;;;0.40;0.40;;;16.80;99.90;;;;;;5070398;28;20276;-67
2022/08/22 06:07:13;;;;;;;0.50;0.50;;;16.90;99.90;;;;;;5069885;28;20248;-70
2022/08/22 06:10:14;;;;;;;0.40;0.40;;;17.00;99.90;;;;;;5065030;28;20196;-70
2022/08/22 06:13:08;;;;;;;0.40;0.40;;;17.20;99.90;;;;;;5069041;28;20265;-70
2022/08/22 06:16:07;;;;;;;0.40;0.40;;;17.20;99.90;;;;;;5071369;28;20205;-67
2022/08/22 06:18:58;;;;;;;0.40;0.40;;;17.30;99.90;;;;;;5072773;28;20197;-68
2022/08/22 06:21:49;;;;;;;0.40;0.40;;;17.50;99.90;;;;;;5069514;28;20204;-68
2022/08/22 06:24:40;;;;;;;0.40;0.40;;;17.70;99.90;;;;;;5070403;28;20741;-68
2022/08/22 06:27:28;;;;;;;0.40;0.40;;;17.80;99.90;;;;;;5050090;28;20291;-68
2022/08/22 06:30:20;;;;;;;0.40;0.40;;;18.00;99.90;;;;;;5050663;28;20759;-69
2022/08/22 06:33:12;;;;;;;0.40;0.40;;;18.10;99.90;;;;;;5066005;28;20200;-69
2022/08/22 06:39:17;;;;;;;0.40;0.40;;;18.30;99.90;;;;;;5072298;28;20201;-66
2022/08/22 06:42:09;;;;;;;0.45;0.45;;;18.30;99.90;;;;;;5071846;28;20204;-66
2022/08/22 06:45:07;;;;;;;0.40;0.40;;;18.40;99.90;;;;;;5077166;28;20669;-68
2022/08/22 06:48:12;;;;;;;0.47;0.47;;;18.40;99.90;;;;;;5075568;28;20216;-67
2022/08/22 06:51:02;;;;;;;0.40;0.40;;;18.50;99.90;;;;;;5062307;28;20237;-70
2022/08/22 06:53:56;;;;;;;0.40;0.40;;;18.60;99.90;;;;;;5075492;28;20228;-68
2022/08/22 06:56:48;;;;;;;0.40;0.40;;;18.70;99.90;;;;;;5074834;28;20228;-68
2022/08/22 06:59:38;;;;;;;0.40;0.40;;;18.70;99.90;;;;;;5076702;28;20730;-68
2022/08/22 07:02:32;;;;;;;0.40;0.40;;;18.80;99.90;;;;;;5094208;28;20207;-68
2022/08/22 07:05:22;;;;;;;0.40;0.40;;;19.00;99.90;;;;;;5079596;28;20193;-68
2022/08/22 07:08:14;;;;;;;0.40;0.40;;;19.00;99.90;;;;;;5074163;28;20224;-70
2022/08/22 07:11:10;;;;;;;0.50;0.50;;;19.20;99.90;;;;;;5073938;28;20220;-66
2022/08/22 07:14:02;;;;;;;0.40;0.40;;;19.30;99.90;;;;;;5075012;28;20572;-68
2022/08/22 07:16:56;;;;;;;0.40;0.40;;;19.40;99.90;;;;;;5067678;28;20225;-68
2022/08/22 07:19:53;;;;;;;0.40;0.40;;;19.40;99.90;;;;;;5071224;28;20203;-69
2022/08/22 07:22:52;;;;;;;0.40;0.40;;;19.50;99.90;;;;;;5074379;28;20681;-69
2022/08/22 07:25:52;;;;;;;0.50;0.50;;;19.60;99.90;;;;;;5070079;28;20197;-68
2022/08/22 07:28:45;;;;;;;0.40;0.40;;;19.70;99.90;;;;;;5068239;28;20208;-66
2022/08/22 07:31:53;;;;;;;0.47;0.47;;;19.80;99.90;;;;;;5074199;28;20222;-68
2022/08/22 07:35:04;;;;;;;0.40;0.40;;;19.90;99.90;;;;;;5069902;28;20213;-67
2022/08/22 07:37:59;;;;;;;0.40;0.40;;;20.10;99.90;;;;;;5085781;28;20299;-69
2022/08/22 07:41:00;;;;;;;0.40;0.40;;;20.30;99.90;;;;;;5094160;28;20207;-69
2022/08/22 07:43:50;;;;;;;0.40;0.40;;;20.60;99.90;;;;;;5071825;28;20287;-70
2022/08/22 07:46:46;;;;;;;0.40;0.40;;;20.90;99.90;;;;;;5068525;28;20263;-69
2022/08/22 07:49:39;;;;;;;0.50;0.50;;;21.00;99.90;;;;;;5076469;28;20200;-69
2022/08/22 07:52:42;;;;;;;0.40;0.40;;;21.20;99.90;;;;;;5067475;28;20208;-69
2022/08/22 07:55:30;;;;;;;0.40;0.40;;;21.30;99.90;;;;;;5066259;28;20669;-68
2022/08/22 07:58:23;;;;;;;0.40;0.40;;;21.40;99.90;;;;;;5073022;28;20209;-66
2022/08/22 08:01:17;;;;;;;0.40;0.40;;;21.50;99.90;;;;;;5072804;28;20262;-69
2022/08/22 08:04:08;;;;;;;0.40;0.40;;;21.50;99.90;;;;;;5071545;28;20201;-67
2022/08/22 08:06:59;;;;;;;0.43;0.43;;;21.60;99.90;;;;;;5072929;28;20916;-69
2022/08/22 08:09:52;;;;;;;0.40;0.40;;;21.60;99.90;;;;;;5071733;28;20698;-67
2022/08/22 08:12:46;;;;;;;0.50;0.50;;;21.70;99.90;;;;;;5073408;28;20223;-69
2022/08/22 08:15:51;;;;;;;0.40;0.40;;;21.90;99.90;;;;;;5069996;28;20216;-67
2022/08/22 08:18:40;;;;;;;0.40;0.40;;;21.90;99.90;;;;;;5073575;28;20666;-69
2022/08/22 08:21:36;;;;;;;0.40;0.40;;;22.10;99.90;;;;;;5073637;28;20227;-70
2022/08/22 08:24:28;;;;;;;0.40;0.40;;;22.20;99.90;;;;;;5071934;28;20197;-67
2022/08/22 08:30:42;;;;;;;0.40;0.40;;;22.40;99.90;;;;;;5074522;28;20192;-66
2022/08/22 08:33:33;;;;;;;0.40;0.40;;;22.40;99.90;;;;;;5073567;28;20669;-67
2022/08/22 08:36:32;;;;;;;0.40;0.40;;;22.40;99.90;;;;;;5066408;28;20277;-66
2022/08/22 08:39:26;;;;;;;0.40;0.40;;;22.40;99.90;;;;;;5073594;28;20249;-67
2022/08/22 08:46:33;;;;;;;0.40;0.40;;;22.60;99.90;;;;;;5073758;28;20208;-66
2022/08/22 08:49:39;;;;;;;0.40;0.40;;;22.60;99.90;;;;;;5070567;28;20276;-67
2022/08/22 08:52:44;;;;;;;0.40;0.40;;;22.80;99.90;;;;;;5068185;28;20220;-67
2022/08/22 08:55:45;;;;;;;0.40;0.40;;;22.80;99.90;;;;;;5069659;28;20197;-66
2022/08/22 08:58:42;;;;;;;0.40;0.40;;;22.90;99.90;;;;;;5070148;28;20669;-66
2022/08/22 09:01:52;;;;;;;0.40;0.40;;;22.90;99.90;;;;;;5071873;28;20581;-65
2022/08/22 09:05:20;;;;;;;0.50;0.50;;;23.10;99.90;;;;;;5065039;28;20697;-68
2022/08/22 09:08:33;;;;;;;1.00;1.00;;;23.30;99.90;;;;;;5023000;28;20217;-67
2022/08/22 09:12:01;;;;;;;0.40;0.40;;;23.30;99.90;;;;;;5066940;28;20559;-66
2022/08/22 09:15:15;;;;;;;0.40;0.40;;;23.50;99.90;;;;;;5053577;28;20208;-66
2022/08/22 09:18:46;;;;;;;0.40;0.40;;;23.70;99.90;;;;;;5060638;28;20242;-67
2022/08/22 09:22:10;;;;;;;0.40;0.40;;;23.90;99.90;;;;;;5067230;28;20253;-66
2022/08/22 09:25:25;;;;;;;0.40;0.40;;;24.10;99.90;;;;;;5063168;28;20205;-65
2022/08/22 09:28:31;;;;;;;0.40;0.40;;;24.20;99.90;;;;;;5071238;28;20197;-67
2022/08/22 09:31:36;;;;;;;0.40;0.40;;;24.40;99.90;;;;;;5072000;28;20203;-65
2022/08/22 09:35:00;;;;;;;0.40;0.40;;;24.70;99.90;;;;;;5070551;28;20693;-67
2022/08/22 09:37:59;;;;;;;0.40;0.40;;;24.90;99.90;;;;;;5070208;28;20274;-65
2022/08/22 09:40:55;;;;;;;0.40;0.40;;;25.00;99.90;;;;;;5070637;28;20196;-66
2022/08/22 09:43:51;;;;;;;0.40;0.40;;;25.20;99.90;;;;;;5072213;28;20274;-68
2022/08/22 09:46:51;;;;;;;1.67;1.58;;;25.30;99.90;;;;;;5070872;28;20729;-65
2022/08/22 09:49:51;;;;;;;0.40;0.40;;;25.60;99.90;;;;;;5065740;28;20211;-65
2022/08/22 09:52:58;;;;;;;0.40;0.40;;;25.80;99.90;;;;;;5052325;28;20243;-67
2022/08/22 09:55:54;;;;;;;0.40;0.40;;;25.90;99.90;;;;;;5051624;28;20201;-67
2022/08/22 09:58:49;;;;;;;0.40;0.40;;;26.10;99.90;;;;;;5051325;28;20198;-67
2022/08/22 10:01:41;;;;;;;0.40;0.40;;;26.20;99.90;;;;;;5051134;28;20674;-67
2022/08/22 10:04:50;;;;;;;0.40;0.40;;;26.30;99.90;;;;;;5050684;28;20279;-67
2022/08/22 10:07:58;;;;;;;0.40;0.40;;;26.30;99.90;;;;;;5051154;28;20228;-67
2022/08/22 10:11:13;;;;;;;0.40;0.40;;;26.40;99.90;;;;;;5050439;28;20212;-66
2022/08/22 10:14:04;;;;;;;0.70;0.70;;;26.60;99.90;;;;;;5050715;28;20221;-66
2022/08/22 10:17:02;;;;;;;0.40;0.40;;;26.80;99.90;;;;;;5050478;28;20608;-67
2022/08/22 10:19:53;;;;;;;0.40;0.40;;;26.90;99.90;;;;;;5059124;28;20242;-66
2022/08/22 10:22:49;;;;;;;0.40;0.40;;;26.70;99.90;;;;;;5068538;28;20208;-66
2022/08/22 10:25:41;;;;;;;0.40;0.40;;;26.80;99.90;;;;;;5068080;28;20201;-67
2022/08/22 10:28:38;;;;;;;0.40;0.40;;;26.50;98.90;;;;;;5071521;28;20212;-67
2022/08/22 10:31:34;;;;;;;0.40;0.40;;;26.60;99.80;;;;;;5071106;28;20219;-66
2022/08/22 10:34:39;;;;;;;0.40;0.40;;;26.80;99.70;;;;;;5071312;28;20243;-66
2022/08/22 10:37:37;;;;;;;0.50;0.50;;;27.10;98.80;;;;;;5071141;28;20709;-64
2022/08/22 10:40:41;;;;;;;0.40;0.40;;;27.20;98.60;;;;;;5069927;28;20288;-66
2022/08/22 10:43:37;;;;;;;0.40;0.40;;;27.20;98.00;;;;;;5069050;28;20200;-70
2022/08/22 10:46:34;;;;;;;0.40;0.40;;;27.20;97.90;;;;;;5069363;28;20228;-65
2022/08/22 10:49:27;;;;;;;0.52;0.52;;;27.30;96.40;;;;;;5069218;28;20208;-64
2022/08/22 10:52:23;;;;;;;0.40;0.40;;;27.30;95.80;;;;;;5068439;28;20746;-65
2022/08/22 10:55:16;;;;;;;1.02;1.00;;;27.20;95.40;;;;;;5074314;28;20208;-66
2022/08/22 10:58:11;;;;;;;0.45;0.45;;;27.10;95.50;;;;;;5082517;28;20216;-65
2022/08/22 11:01:02;;;;;;;0.40;0.40;;;27.30;95.00;;;;;;5074707;28;20669;-65
2022/08/22 11:04:22;;;;;;;0.40;0.40;;;27.40;95.40;;;;;;5066357;28;20199;-65
2022/08/22 11:07:37;;;;;;;0.40;0.40;;;27.50;94.40;;;;;;5068441;28;20224;-66
2022/08/22 11:10:41;;;;;;;0.40;0.40;;;27.70;93.70;;;;;;5062119;28;20200;-66
2022/08/22 11:13:39;;;;;;;0.40;0.40;;;27.70;93.00;;;;;;5072378;28;20225;-66
2022/08/22 11:16:45;;;;;;;0.40;0.40;;;27.50;92.60;;;;;;5072640;28;20231;-66
2022/08/22 11:19:59;;;;;;;0.40;0.40;;;27.50;93.10;;;;;;5071760;28;20231;-66
2022/08/22 11:23:05;;;;;;;0.40;0.40;;;27.50;92.20;;;;;;5073707;28;20196;-66
2022/08/22 11:26:01;;;;;;;0.40;0.40;;;27.50;92.30;;;;;;5059716;28;20205;-66
2022/08/22 11:29:35;;;;;;;0.40;0.40;;;27.60;92.80;;;;;;5074602;28;20205;-65
2022/08/22 11:32:34;;;;;;;0.40;0.40;;;27.60;92.30;;;;;;5020467;28;20227;-66
2022/08/22 11:35:25;;;;;;;0.40;0.40;;;27.70;92.50;;;;;;5072989;28;20238;-66
2022/08/22 11:38:24;;;;;;;0.40;0.40;;;27.70;91.80;;;;;;5072291;28;20220;-66
2022/08/22 11:41:25;;;;;;;0.40;0.40;;;27.80;91.50;;;;;;5072854;28;20279;-65
2022/08/22 11:44:18;;;;;;;0.40;0.40;;;27.80;91.10;;;;;;5072688;28;20188;-66
2022/08/22 11:47:13;;;;;;;0.40;0.40;;;27.90;91.00;;;;;;5070225;28;20224;-65
2022/08/22 11:50:08;;;;;;;0.40;0.40;;;27.90;90.20;;;;;;5059757;28;20208;-65
2022/08/22 11:53:18;;;;;;;0.40;0.40;;;28.00;89.70;;;;;;5073310;28;20299;-66
2022/08/22 11:56:17;;;;;;;0.40;0.40;;;28.00;89.60;;;;;;5060513;28;20196;-66
2022/08/22 11:59:17;;;;;;;0.40;0.40;;;28.00;88.90;;;;;;5068521;28;20289;-66
2022/08/22 12:02:18;;;;;;;0.40;0.40;;;28.20;85.90;;;;;;5060175;28;20618;-64
2022/08/22 12:05:19;;;;;;;0.40;0.40;;;28.50;85.70;;;;;;5072006;28;20669;-64
2022/08/22 12:08:21;;;;;;;0.40;0.40;;;28.70;84.40;;;;;;5072491;28;20220;-64
2022/08/22 12:11:14;;;;;;;0.40;0.40;;;28.70;84.00;;;;;;5072516;28;20236;-64
2022/08/22 12:14:04;;;;;;;0.40;0.40;;;28.80;82.50;;;;;;5059345;28;20220;-64
2022/08/22 12:17:05;;;;;;;0.40;0.40;;;28.80;82.50;;;;;;5072697;28;20232;-65
2022/08/22 12:20:10;;;;;;;0.40;0.40;;;29.10;80.50;;;;;;5063603;28;20670;-65
2022/08/22 12:23:24;;;;;;;0.40;0.40;;;29.30;79.50;;;;;;5072456;28;20200;-65
2022/08/22 12:26:40;;;;;;;0.40;0.40;;;29.60;79.50;;;;;;5070258;28;20694;-65
2022/08/22 12:29:37;;;;;;;0.40;0.40;;;29.70;78.80;;;;;;5071642;28;20624;-65
2022/08/22 12:33:01;;;;;;;0.40;0.40;;;29.80;78.70;;;;;;5071231;28;20203;-65
2022/08/22 12:36:07;;;;;;;1.75;1.73;;;29.60;75.20;;;;;;5070555;28;20197;-64
2022/08/22 12:39:25;;;;;;;0.40;0.40;;;29.60;76.00;;;;;;5073139;28;20215;-64
2022/08/22 12:42:31;;;;;;;0.40;0.40;;;29.90;76.40;;;;;;5072389;28;20246;-64
2022/08/22 12:45:32;;;;;;;0.40;0.40;;;30.10;75.10;;;;;;5073625;28;20691;-64
2022/08/22 12:48:41;;;;;;;0.40;0.40;;;30.00;75.50;;;;;;5072634;28;20212;-64
2022/08/22 12:51:36;;;;;;;0.40;0.40;;;29.80;76.30;;;;;;5074617;28;20278;-64
2022/08/22 12:54:59;;;;;;;0.40;0.40;;;30.00;75.10;;;;;;5073292;28;20225;-64
2022/08/22 12:57:57;;;;;;;0.40;0.40;;;30.30;74.40;;;;;;5085715;28;20215;-64
2022/08/22 13:00:48;;;;;;;0.40;0.40;;;30.60;73.70;;;;;;5092293;28;20314;-64
2022/08/22 13:03:44;;;;;;;0.50;0.50;;;30.80;71.80;;;;;;5072291;28;20584;-65
2022/08/22 13:06:55;;;;;;;0.40;0.40;;;31.10;70.90;;;;;;5072093;28;20635;-64
2022/08/22 13:09:48;;;;;;;0.40;0.40;;;31.10;72.20;;;;;;5071844;28;20254;-64
2022/08/22 13:12:45;;;;;;;0.40;0.40;;;31.00;69.40;;;;;;5071700;28;20208;-64
2022/08/22 13:15:37;;;;;;;0.40;0.40;;;30.90;69.70;;;;;;5071549;28;20262;-65
2022/08/22 13:18:35;;;;;;;0.40;0.40;;;31.00;70.30;;;;;;5071259;28;20197;-64
2022/08/22 13:21:31;;;;;;;0.40;0.40;;;31.10;70.50;;;;;;5070991;28;20586;-65
2022/08/22 13:24:32;;;;;;;0.40;0.40;;;31.20;70.10;;;;;;5072046;28;20201;-65
2022/08/22 13:27:29;;;;;;;0.40;0.40;;;31.90;68.70;;;;;;5071402;28;20224;-65
2022/08/22 13:30:20;;;;;;;0.60;0.60;;;32.40;68.40;;;;;;5070724;28;20205;-65
2022/08/22 13:33:12;;;;;;;0.40;0.40;;;32.60;67.60;;;;;;5071507;28;20341;-65
2022/08/22 13:36:03;;;;;;;0.40;0.40;;;32.30;67.50;;;;;;5072043;28;20200;-65
2022/08/22 13:38:56;;;;;;;0.40;0.40;;;32.30;67.80;;;;;;5071344;28;20204;-65
2022/08/22 13:41:52;;;;;;;0.50;0.50;;;32.00;67.20;;;;;;5071937;28;20204;-65
2022/08/22 13:44:44;;;;;;;0.40;0.40;;;31.30;67.10;;;;;;5071824;28;20193;-64
2022/08/22 13:47:37;;;;;;;1.10;1.10;;;30.90;68.80;;;;;;5071311;28;20735;-65
2022/08/22 13:50:29;;;;;;;0.40;0.40;;;31.10;69.30;;;;;;5071429;28;20201;-65
2022/08/22 13:53:41;;;;;;;0.40;0.40;;;31.20;67.80;;;;;;5071537;28;20203;-65
2022/08/22 13:56:57;;;;;;;0.40;0.40;;;31.10;69.30;;;;;;5075910;28;20215;-65
2022/08/22 13:59:49;;;;;;;0.40;0.40;;;31.10;69.40;;;;;;5090973;28;20199;-65
2022/08/22 14:02:58;;;;;;;0.40;0.40;;;31.30;68.10;;;;;;5088434;28;20200;-64
2022/08/22 14:05:50;;;;;;;0.47;0.47;;;31.70;67.70;;;;;;5070594;28;20211;-65
2022/08/22 14:08:42;;;;;;;0.40;0.40;;;31.80;68.00;;;;;;5068630;28;20662;-65
2022/08/22 14:11:42;;;;;;;0.40;0.40;;;31.40;69.00;;;;;;5070498;28;20258;-65
2022/08/22 14:14:35;;;;;;;0.40;0.40;;;31.30;69.90;;;;;;5070341;28;20262;-64
2022/08/22 14:17:28;;;;;;;0.40;0.40;;;31.10;67.80;;;;;;5069616;28;20228;-65
2022/08/22 14:20:23;;;;;;;0.40;0.40;;;30.60;68.90;;;;;;5068529;28;20716;-65
2022/08/22 14:23:27;;;;;;;0.40;0.40;;;30.30;69.00;;;;;;5071459;28;20200;-65
2022/08/22 14:26:24;;;;;;;0.40;0.40;;;30.10;69.60;;;;;;5070493;28;20216;-65
2022/08/22 14:32:12;;;;;;;0.40;0.40;;;29.90;69.80;;;;;;5090951;28;20695;-70
2022/08/22 14:35:05;;;;;;;0.40;0.40;;;29.80;70.40;;;;;;5091337;28;20732;-71
2022/08/22 14:38:19;;;;;;;0.40;0.40;;;29.70;69.90;;;;;;5089060;28;20633;-71
2022/08/22 14:41:27;;;;;;;0.40;0.40;;;29.70;69.20;;;;;;5089751;28;20246;-70
2022/08/22 14:44:41;;;;;;;0.40;0.40;;;29.70;69.20;;;;;;5071320;28;20660;-70
2022/08/22 14:47:38;;;;;;;0.40;0.40;;;29.40;68.90;;;;;;5070604;28;20201;-69
2022/08/22 14:50:52;;;;;;;0.40;0.40;;;29.20;68.70;;;;;;5070981;28;20350;-70
2022/08/22 14:53:41;;;;;;;0.40;0.40;;;29.00;69.50;;;;;;5099067;28;20206;-69
2022/08/22 14:56:30;;;;;;;0.40;0.40;;;28.90;69.90;;;;;;5107223;28;20667;-70
2022/08/22 14:59:32;;;;;;;0.40;0.40;;;28.50;70.70;;;;;;5088838;28;20286;-72
2022/08/22 15:02:27;;;;;;;0.40;0.40;;;28.50;71.40;;;;;;5088672;28;20203;-70
2022/08/22 15:05:20;;;;;;;0.40;0.40;;;28.50;72.00;;;;;;5089473;28;20206;-70
2022/08/22 15:08:09;;;;;;;0.40;0.40;;;28.50;72.10;;;;;;5088519;28;20195;-70
2022/08/22 15:11:11;;;;;;;0.40;0.40;;;28.30;72.80;;;;;;5088845;28;20231;-70
2022/08/22 15:14:08;;;;;;;0.40;0.40;;;28.40;73.40;;;;;;5091113;28;20207;-69
2022/08/22 15:17:02;;;;;;;0.50;0.50;;;28.50;73.30;;;;;;5091803;28;20580;-69
2022/08/22 15:19:52;;;;;;;0.40;0.40;;;28.50;74.00;;;;;;5090820;28;20224;-69
2022/08/22 15:22:45;;;;;;;0.40;0.40;;;28.60;74.20;;;;;;5090654;28;20240;-69
2022/08/22 15:25:37;;;;;;;0.40;0.40;;;28.70;73.90;;;;;;5090350;28;20243;-69
2022/08/22 15:28:30;;;;;;;0.40;0.40;;;28.70;73.90;;;;;;5090167;28;20204;-70
2022/08/22 15:31:40;;;;;;;0.40;0.40;;;28.80;73.70;;;;;;5090286;28;20231;-69
2022/08/22 15:34:42;;;;;;;0.40;0.40;;;28.90;73.30;;;;;;5091472;28;20192;-70
2022/08/22 15:37:33;;;;;;;0.40;0.40;;;29.70;72.70;;;;;;5091288;28;20211;-68
2022/08/22 15:40:37;;;;;;;0.60;0.60;;;30.60;71.20;;;;;;5093563;28;20692;-70
2022/08/22 15:43:32;;;;;;;0.40;0.40;;;31.10;69.70;;;;;;5094447;28;20645;-70
2022/08/22 15:46:30;;;;;;;0.40;0.40;;;31.30;68.10;;;;;;5094409;28;20192;-70
2022/08/22 15:49:27;;;;;;;0.40;0.40;;;30.90;68.10;;;;;;5095136;28;20249;-69
2022/08/22 15:52:23;;;;;;;0.40;0.40;;;30.80;68.70;;;;;;5094733;28;20411;-69
2022/08/22 15:55:22;;;;;;;0.40;0.40;;;30.50;69.20;;;;;;5094020;28;20223;-69